PWSweather.com
Personal Weather Stations
Station Observations
IHTIMAN1
Neighbourhood 1, IhtimanBG 2050

Neighbourhood 1IhtimanBG 2050

Lat: 42.436852, Lon: 23.817921

Elevation: 2066

Station Type: Oregon Scientific WMR968

http://ihtiman-meteo.com

High Low Average
Temperature 84.2°F29.0°C 57.9°F14.4°C 70.5°F21.4°C
Dew Point 65.7°F18.7°C 54.3°F12.4°C 60.0°F15.6°C
Winds 9.2 mph 14.8 kmh Calm Calm 2.0 mph S3.2 kmh S
Wind Gusts 12.7 mph20.4 kmh -- 3.0 mph4.8 kmh
Humidity 98% 40% 73%
Pressure 30.06 in1017.9 mb 29.97 in1014.9 mb -
Precipitation 0.00 in0.0 mm - -
Hour Temp Dew Point Humidity Winds Wind Gusts Pressure Precip Precip Rate Daily Precip Total
12:00 AM 63.3°F17.4°C 62.7°F17.1°C 98% Calm Calm -- 30.06 in1017.9 mb - 0.00 in0.0 mm 0.00 in0.0 mm
12:10 AM 63.3°F17.4°C 62.7°F17.1°C 98% 2.3 mph SE3.7 kmh SE 5.8 mph9.3 kmh 30.06 in1017.9 mb - 0.00 in0.0 mm 0.00 in0.0 mm
12:20 AM 63.7°F17.6°C 63.1°F17.3°C 98% Calm Calm 3.5 mph5.6 kmh 30.03 in1016.9 mb - 0.00 in0.0 mm 0.00 in0.0 mm
12:30 AM 63.7°F17.6°C 63.1°F17.3°C 98% Calm Calm 3.5 mph5.6 kmh 30.03 in1016.9 mb - 0.00 in0.0 mm 0.00 in0.0 mm
12:40 AM 63.9°F17.7°C 63.3°F17.4°C 98% Calm Calm -- 30.03 in1016.9 mb - 0.00 in0.0 mm 0.00 in0.0 mm
12:50 AM 63.9°F17.7°C 63.3°F17.4°C 98% Calm Calm -- 30.03 in1016.9 mb - 0.00 in0.0 mm 0.00 in0.0 mm
01:00 AM 63.9°F17.7°C 63.3°F17.4°C 98% Calm Calm 2.3 mph3.7 kmh 30.03 in1016.9 mb - 0.00 in0.0 mm 0.00 in0.0 mm
01:10 AM 63.7°F17.6°C 63.1°F17.3°C 98% 3.5 mph SSE5.6 kmh SSE 4.6 mph7.4 kmh 30.03 in1016.9 mb - 0.00 in0.0 mm 0.00 in0.0 mm
01:20 AM 63.7°F17.6°C 63.1°F17.3°C 98% Calm Calm -- 30.03 in1016.9 mb - 0.00 in0.0 mm 0.00 in0.0 mm
01:30 AM 63.7°F17.6°C 63.1°F17.3°C 98% Calm Calm -- 30.00 in1015.9 mb - 0.00 in0.0 mm 0.00 in0.0 mm
01:40 AM 63.5°F17.5°C 62.9°F17.2°C 98% Calm Calm -- 30.00 in1015.9 mb - 0.00 in0.0 mm 0.00 in0.0 mm
01:50 AM 63.3°F17.4°C 62.7°F17.1°C 98% Calm Calm -- 30.00 in1015.9 mb - 0.00 in0.0 mm 0.00 in0.0 mm
02:00 AM 63.1°F17.3°C 62.6°F17.0°C 98% Calm Calm -- 30.00 in1015.9 mb - 0.00 in0.0 mm 0.00 in0.0 mm
02:10 AM 63.0°F17.2°C 62.4°F16.9°C 98% Calm Calm -- 30.00 in1015.9 mb - 0.00 in0.0 mm 0.00 in0.0 mm
02:20 AM 62.7°F17.1°C 62.1°F16.7°C 98% Calm Calm -- 30.00 in1015.9 mb - 0.00 in0.0 mm 0.00 in0.0 mm
02:30 AM 62.1°F16.7°C 61.6°F16.4°C 98% Calm Calm -- 30.00 in1015.9 mb - 0.00 in0.0 mm 0.00 in0.0 mm
02:40 AM 61.2°F16.2°C 60.6°F15.9°C 98% Calm Calm -- 30.00 in1015.9 mb - 0.00 in0.0 mm 0.00 in0.0 mm
02:50 AM 60.7°F15.9°C 60.1°F15.6°C 98% Calm Calm -- 30.00 in1015.9 mb - 0.00 in0.0 mm 0.00 in0.0 mm
03:00 AM 60.4°F15.8°C 59.9°F15.5°C 98% Calm Calm -- 30.00 in1015.9 mb - 0.00 in0.0 mm 0.00 in0.0 mm
03:10 AM 60.3°F15.7°C 59.7°F15.4°C 98% Calm Calm -- 30.00 in1015.9 mb - 0.00 in0.0 mm 0.00 in0.0 mm
03:20 AM 60.1°F15.6°C 59.5°F15.3°C 98% Calm Calm -- 30.00 in1015.9 mb - 0.00 in0.0 mm 0.00 in0.0 mm
03:30 AM 60.3°F15.7°C 59.7°F15.4°C 98% Calm Calm -- 30.00 in1015.9 mb - 0.00 in0.0 mm 0.00 in0.0 mm
03:40 AM 60.3°F15.7°C 59.7°F15.4°C 98% Calm Calm -- 30.00 in1015.9 mb - 0.00 in0.0 mm 0.00 in0.0 mm
03:50 AM 60.0°F15.6°C 59.5°F15.3°C 98% Calm Calm -- 30.00 in1015.9 mb - 0.00 in0.0 mm 0.00 in0.0 mm
04:00 AM 59.7°F15.4°C 59.1°F15.1°C 98% Calm Calm -- 30.00 in1015.9 mb - 0.00 in0.0 mm 0.00 in0.0 mm
04:10 AM 59.4°F15.2°C 58.8°F14.9°C 98% Calm Calm -- 30.00 in1015.9 mb - 0.00 in0.0 mm 0.00 in0.0 mm
04:20 AM 59.0°F15.0°C 58.4°F14.7°C 98% Calm Calm -- 30.00 in1015.9 mb - 0.00 in0.0 mm 0.00 in0.0 mm
04:30 AM 59.0°F15.0°C 58.4°F14.7°C 98% Calm Calm -- 30.00 in1015.9 mb - 0.00 in0.0 mm 0.00 in0.0 mm
04:40 AM 59.0°F15.0°C 58.4°F14.7°C 98% Calm Calm -- 30.00 in1015.9 mb - 0.00 in0.0 mm 0.00 in0.0 mm
04:50 AM 59.2°F15.1°C 58.6°F14.8°C 98% Calm Calm -- 30.03 in1016.9 mb - 0.00 in0.0 mm 0.00 in0.0 mm
05:00 AM 58.5°F14.7°C 58.0°F14.4°C 98% Calm Calm -- 30.03 in1016.9 mb - 0.00 in0.0 mm 0.00 in0.0 mm
05:10 AM 57.9°F14.4°C 57.4°F14.1°C 98% Calm Calm -- 30.03 in1016.9 mb - 0.00 in0.0 mm 0.00 in0.0 mm
05:20 AM 57.9°F14.4°C 57.4°F14.1°C 98% Calm Calm -- 30.03 in1016.9 mb - 0.00 in0.0 mm 0.00 in0.0 mm
05:30 AM 57.9°F14.4°C 57.4°F14.1°C 98% Calm Calm -- 30.03 in1016.9 mb - 0.00 in0.0 mm 0.00 in0.0 mm
05:40 AM 58.1°F14.5°C 57.5°F14.2°C 98% Calm Calm -- 30.03 in1016.9 mb - 0.00 in0.0 mm 0.00 in0.0 mm
05:50 AM 58.2°F14.6°C 57.6°F14.2°C 98% Calm Calm -- 30.03 in1016.9 mb - 0.00 in0.0 mm 0.00 in0.0 mm
06:00 AM 58.5°F14.7°C 57.9°F14.4°C 98% Calm Calm -- 30.03 in1016.9 mb - 0.00 in0.0 mm 0.00 in0.0 mm
06:10 AM 58.9°F14.9°C 58.4°F14.7°C 98% Calm Calm -- 30.03 in1016.9 mb - 0.00 in0.0 mm 0.00 in0.0 mm
06:20 AM 59.5°F15.3°C 58.9°F14.9°C 98% Calm Calm -- 30.03 in1016.9 mb - 0.00 in0.0 mm 0.00 in0.0 mm
06:30 AM 59.5°F15.3°C 59.0°F15.0°C 98% Calm Calm -- 30.03 in1016.9 mb - 0.00 in0.0 mm 0.00 in0.0 mm
06:50 AM 60.6°F15.9°C 60.1°F15.6°C 98% Calm Calm -- 30.03 in1016.9 mb - 0.00 in0.0 mm 0.00 in0.0 mm
07:00 AM 61.2°F16.2°C 60.6°F15.9°C 98% Calm Calm -- 30.03 in1016.9 mb - 0.00 in0.0 mm 0.00 in0.0 mm
07:10 AM 61.7°F16.5°C 61.2°F16.2°C 98% Calm Calm -- 30.03 in1016.9 mb - 0.00 in0.0 mm 0.00 in0.0 mm
07:20 AM 63.7°F17.6°C 63.1°F17.3°C 98% Calm Calm -- 30.03 in1016.9 mb - 0.00 in0.0 mm 0.00 in0.0 mm
07:30 AM 64.6°F18.1°C 64.0°F17.8°C 98% Calm Calm -- 30.03 in1016.9 mb - 0.00 in0.0 mm 0.00 in0.0 mm
07:40 AM 65.4°F18.6°C 64.8°F18.2°C 98% Calm Calm -- 30.03 in1016.9 mb - 0.00 in0.0 mm 0.00 in0.0 mm
07:50 AM 66.9°F19.4°C 65.7°F18.7°C 96% Calm Calm -- 30.03 in1016.9 mb - 0.00 in0.0 mm 0.00 in0.0 mm
08:00 AM 67.5°F19.7°C 64.5°F18.1°C 90% Calm Calm -- 30.03 in1016.9 mb - 0.00 in0.0 mm 0.00 in0.0 mm
08:10 AM 68.3°F20.2°C 64.3°F17.9°C 87% Calm Calm -- 30.03 in1016.9 mb - 0.00 in0.0 mm 0.00 in0.0 mm
08:20 AM 70.0°F21.1°C 64.9°F18.3°C 84% Calm Calm -- 30.03 in1016.9 mb - 0.00 in0.0 mm 0.00 in0.0 mm
08:30 AM 70.4°F21.3°C 64.3°F17.9°C 81% Calm Calm -- 30.03 in1016.9 mb - 0.00 in0.0 mm 0.00 in0.0 mm
08:40 AM 71.1°F21.7°C 64.3°F17.9°C 79% Calm Calm -- 30.03 in1016.9 mb - 0.00 in0.0 mm 0.00 in0.0 mm
08:50 AM 71.4°F21.9°C 64.2°F17.9°C 78% Calm Calm -- 30.03 in1016.9 mb - 0.00 in0.0 mm 0.00 in0.0 mm
09:00 AM 72.7°F22.6°C 64.7°F18.2°C 76% Calm Calm -- 30.03 in1016.9 mb - 0.00 in0.0 mm 0.00 in0.0 mm
09:10 AM 73.8°F23.2°C 65.0°F18.3°C 74% Calm Calm -- 30.03 in1016.9 mb - 0.00 in0.0 mm 0.00 in0.0 mm
09:20 AM 74.0°F23.3°C 64.4°F18.0°C 72% Calm Calm -- 30.03 in1016.9 mb - 0.00 in0.0 mm 0.00 in0.0 mm
09:30 AM 75.2°F24.0°C 64.7°F18.2°C 70% Calm Calm -- 30.03 in1016.9 mb - 0.00 in0.0 mm 0.00 in0.0 mm
09:40 AM 75.5°F24.2°C 63.3°F17.4°C 66% Calm Calm -- 30.03 in1016.9 mb - 0.00 in0.0 mm 0.00 in0.0 mm
09:50 AM 76.9°F24.9°C 64.2°F17.9°C 65% Calm Calm -- 30.03 in1016.9 mb - 0.00 in0.0 mm 0.00 in0.0 mm
10:00 AM 77.0°F25.0°C 63.0°F17.2°C 62% 3.5 mph SW5.6 kmh SW 3.5 mph5.6 kmh 30.03 in1016.9 mb - 0.00 in0.0 mm 0.00 in0.0 mm
10:10 AM 78.1°F25.6°C 63.1°F17.3°C 60% 1.2 mph S1.9 kmh S 2.3 mph3.7 kmh 30.03 in1016.9 mb - 0.00 in0.0 mm 0.00 in0.0 mm
10:20 AM 78.6°F25.9°C 63.1°F17.3°C 59% 3.5 mph WSW5.6 kmh WSW 5.8 mph9.3 kmh 30.03 in1016.9 mb - 0.00 in0.0 mm 0.00 in0.0 mm
10:30 AM 79.3°F26.3°C 62.7°F17.1°C 57% 1.2 mph SW1.9 kmh SW 5.8 mph9.3 kmh 30.03 in1016.9 mb - 0.00 in0.0 mm 0.00 in0.0 mm
10:40 AM 79.7°F26.5°C 61.1°F16.2°C 53% 3.5 mph S5.6 kmh S 4.6 mph7.4 kmh 30.03 in1016.9 mb - 0.00 in0.0 mm 0.00 in0.0 mm
10:50 AM 80.3°F26.8°C 60.5°F15.8°C 51% 3.5 mph S5.6 kmh S 5.8 mph9.3 kmh 30.03 in1016.9 mb - 0.00 in0.0 mm 0.00 in0.0 mm
11:00 AM 79.8°F26.6°C 58.9°F14.9°C 49% 1.2 mph S1.9 kmh S 3.5 mph5.6 kmh 30.03 in1016.9 mb - 0.00 in0.0 mm 0.00 in0.0 mm
11:10 AM 80.8°F27.1°C 58.1°F14.5°C 46% 4.6 mph S7.4 kmh S 8.1 mph13.0 kmh 30.03 in1016.9 mb - 0.00 in0.0 mm 0.00 in0.0 mm
11:20 AM 81.1°F27.3°C 59.0°F15.0°C 47% 4.6 mph S7.4 kmh S 8.1 mph13.0 kmh 30.03 in1016.9 mb - 0.00 in0.0 mm 0.00 in0.0 mm
11:30 AM 81.6°F27.6°C 60.0°F15.6°C 48% 4.6 mph ESE7.4 kmh ESE 5.8 mph9.3 kmh 30.03 in1016.9 mb - 0.00 in0.0 mm 0.00 in0.0 mm
11:40 AM 81.4°F27.4°C 58.7°F14.8°C 46% 5.8 mph S9.3 kmh S 5.8 mph9.3 kmh 30.03 in1016.9 mb - 0.00 in0.0 mm 0.00 in0.0 mm
11:50 AM 81.1°F27.3°C 58.4°F14.7°C 46% 5.8 mph SSE9.3 kmh SSE 6.9 mph11.1 kmh 30.03 in1016.9 mb - 0.00 in0.0 mm 0.00 in0.0 mm
12:00 PM 80.0°F26.7°C 57.4°F14.1°C 46% 3.5 mph NE5.6 kmh NE 3.5 mph5.6 kmh 30.03 in1016.9 mb - 0.00 in0.0 mm 0.00 in0.0 mm
12:10 PM 77.2°F25.1°C 58.2°F14.6°C 52% 5.8 mph NE9.3 kmh NE 8.1 mph13.0 kmh 30.03 in1016.9 mb - 0.00 in0.0 mm 0.00 in0.0 mm
12:20 PM 73.8°F23.2°C 54.5°F12.5°C 51% 4.6 mph N7.4 kmh N 8.1 mph13.0 kmh 30.06 in1017.9 mb - 0.00 in0.0 mm 0.00 in0.0 mm
12:30 PM 70.3°F21.3°C 54.3°F12.4°C 57% 9.2 mph N14.8 kmh N 12.7 mph20.4 kmh 30.06 in1017.9 mb - 0.00 in0.0 mm 0.00 in0.0 mm
12:40 PM 69.6°F20.9°C 56.8°F13.8°C 64% 6.9 mph N11.1 kmh N 8.1 mph13.0 kmh 30.06 in1017.9 mb - 0.00 in0.0 mm 0.00 in0.0 mm
12:50 PM 70.2°F21.2°C 56.1°F13.4°C 61% 4.6 mph N7.4 kmh N 6.9 mph11.1 kmh 30.06 in1017.9 mb - 0.00 in0.0 mm 0.00 in0.0 mm
01:00 PM 70.7°F21.5°C 56.1°F13.4°C 60% 5.8 mph W9.3 kmh W 8.1 mph13.0 kmh 30.06 in1017.9 mb - 0.00 in0.0 mm 0.00 in0.0 mm
01:10 PM 73.8°F23.2°C 57.6°F14.2°C 57% 4.6 mph N7.4 kmh N 5.8 mph9.3 kmh 30.06 in1017.9 mb - 0.00 in0.0 mm 0.00 in0.0 mm
01:20 PM 76.2°F24.6°C 58.3°F14.6°C 54% 2.3 mph NNE3.7 kmh NNE 3.5 mph5.6 kmh 30.06 in1017.9 mb - 0.00 in0.0 mm 0.00 in0.0 mm
01:30 PM 76.7°F24.8°C 56.6°F13.7°C 50% 4.6 mph N7.4 kmh N 9.2 mph14.8 kmh 30.06 in1017.9 mb - 0.00 in0.0 mm 0.00 in0.0 mm
01:40 PM 79.0°F26.1°C 57.1°F13.9°C 47% 2.3 mph NNE3.7 kmh NNE 5.8 mph9.3 kmh 30.06 in1017.9 mb - 0.00 in0.0 mm 0.00 in0.0 mm
01:50 PM 80.9°F27.2°C 56.3°F13.5°C 43% 4.6 mph NE7.4 kmh NE 5.8 mph9.3 kmh 30.03 in1016.9 mb - 0.00 in0.0 mm 0.00 in0.0 mm
02:00 PM 81.3°F27.4°C 57.3°F14.1°C 44% 3.5 mph NE5.6 kmh NE 4.6 mph7.4 kmh 30.03 in1016.9 mb - 0.00 in0.0 mm 0.00 in0.0 mm
02:10 PM 81.9°F27.7°C 59.1°F15.1°C 46% 1.2 mph NNE1.9 kmh NNE 2.3 mph3.7 kmh 30.03 in1016.9 mb - 0.00 in0.0 mm 0.00 in0.0 mm
02:20 PM 81.1°F27.3°C 57.8°F14.3°C 45% 5.8 mph SSW9.3 kmh SSW 5.8 mph9.3 kmh 30.03 in1016.9 mb - 0.00 in0.0 mm 0.00 in0.0 mm
02:30 PM 82.0°F27.8°C 58.5°F14.7°C 45% 1.2 mph S1.9 kmh S 5.8 mph9.3 kmh 30.03 in1016.9 mb - 0.00 in0.0 mm 0.00 in0.0 mm
02:40 PM 83.1°F28.4°C 57.6°F14.2°C 42% 2.3 mph SW3.7 kmh SW 4.6 mph7.4 kmh 30.03 in1016.9 mb - 0.00 in0.0 mm 0.00 in0.0 mm
02:50 PM 83.8°F28.8°C 59.6°F15.3°C 44% 5.8 mph SSE9.3 kmh SSE 8.1 mph13.0 kmh 30.03 in1016.9 mb - 0.00 in0.0 mm 0.00 in0.0 mm
03:00 PM 84.2°F29.0°C 57.9°F14.4°C 41% 4.6 mph S7.4 kmh S 8.1 mph13.0 kmh 30.03 in1016.9 mb - 0.00 in0.0 mm 0.00 in0.0 mm
03:10 PM 84.0°F28.9°C 57.7°F14.3°C 41% 3.5 mph SSE5.6 kmh SSE 5.8 mph9.3 kmh 30.03 in1016.9 mb - 0.00 in0.0 mm 0.00 in0.0 mm
03:20 PM 83.1°F28.4°C 56.3°F13.5°C 40% 1.2 mph SE1.9 kmh SE 4.6 mph7.4 kmh 30.00 in1015.9 mb - 0.00 in0.0 mm 0.00 in0.0 mm
03:30 PM 83.7°F28.7°C 58.2°F14.6°C 42% 4.6 mph ENE7.4 kmh ENE 8.1 mph13.0 kmh 30.00 in1015.9 mb - 0.00 in0.0 mm 0.00 in0.0 mm
03:40 PM 82.0°F27.8°C 57.3°F14.1°C 43% 2.3 mph SE3.7 kmh SE 4.6 mph7.4 kmh 30.00 in1015.9 mb - 0.00 in0.0 mm 0.00 in0.0 mm
03:50 PM 81.8°F27.7°C 57.7°F14.3°C 44% 4.6 mph NE7.4 kmh NE 8.1 mph13.0 kmh 30.00 in1015.9 mb - 0.00 in0.0 mm 0.00 in0.0 mm
04:00 PM 82.2°F27.9°C 56.8°F13.8°C 42% 4.6 mph SE7.4 kmh SE 8.1 mph13.0 kmh 30.00 in1015.9 mb - 0.00 in0.0 mm 0.00 in0.0 mm
04:10 PM 82.2°F27.9°C 56.8°F13.8°C 42% 3.5 mph E5.6 kmh E 5.8 mph9.3 kmh 30.00 in1015.9 mb - 0.00 in0.0 mm 0.00 in0.0 mm
04:20 PM 81.7°F27.6°C 56.4°F13.6°C 42% 4.6 mph SE7.4 kmh SE 8.1 mph13.0 kmh 30.00 in1015.9 mb - 0.00 in0.0 mm 0.00 in0.0 mm
04:30 PM 81.9°F27.7°C 56.5°F13.6°C 42% 5.8 mph SE9.3 kmh SE 5.8 mph9.3 kmh 30.00 in1015.9 mb - 0.00 in0.0 mm 0.00 in0.0 mm
04:40 PM 81.7°F27.6°C 56.4°F13.6°C 42% 3.5 mph SSE5.6 kmh SSE 6.9 mph11.1 kmh 30.00 in1015.9 mb - 0.00 in0.0 mm 0.00 in0.0 mm
04:50 PM 81.2°F27.3°C 56.6°F13.7°C 43% 4.6 mph ESE7.4 kmh ESE 5.8 mph9.3 kmh 30.00 in1015.9 mb - 0.00 in0.0 mm 0.00 in0.0 mm
05:00 PM 79.4°F26.3°C 55.0°F12.8°C 43% 4.6 mph SE7.4 kmh SE 5.8 mph9.3 kmh 30.00 in1015.9 mb - 0.00 in0.0 mm 0.00 in0.0 mm
05:10 PM 80.2°F26.8°C 56.3°F13.5°C 44% 3.5 mph NE5.6 kmh NE 3.5 mph5.6 kmh 30.00 in1015.9 mb - 0.00 in0.0 mm 0.00 in0.0 mm
05:20 PM 79.0°F26.1°C 55.2°F12.9°C 44% 3.5 mph E5.6 kmh E 5.8 mph9.3 kmh 29.97 in1014.9 mb - 0.00 in0.0 mm 0.00 in0.0 mm
05:30 PM 78.8°F26.0°C 55.7°F13.2°C 45% 3.5 mph NE5.6 kmh NE 5.8 mph9.3 kmh 29.97 in1014.9 mb - 0.00 in0.0 mm 0.00 in0.0 mm
05:40 PM 78.6°F25.9°C 56.7°F13.7°C 47% 4.6 mph NE7.4 kmh NE 5.8 mph9.3 kmh 29.97 in1014.9 mb - 0.00 in0.0 mm 0.00 in0.0 mm
05:50 PM 78.5°F25.8°C 57.2°F14.0°C 48% 2.3 mph SE3.7 kmh SE 3.5 mph5.6 kmh 30.00 in1015.9 mb - 0.00 in0.0 mm 0.00 in0.0 mm
06:00 PM 78.9°F26.1°C 57.0°F13.9°C 47% 3.5 mph ENE5.6 kmh ENE 5.8 mph9.3 kmh 30.00 in1015.9 mb - 0.00 in0.0 mm 0.00 in0.0 mm
06:10 PM 79.0°F26.1°C 57.6°F14.2°C 48% 2.3 mph NE3.7 kmh NE 5.8 mph9.3 kmh 30.00 in1015.9 mb - 0.00 in0.0 mm 0.00 in0.0 mm
06:20 PM 78.1°F25.6°C 57.4°F14.1°C 49% 3.5 mph NE5.6 kmh NE 5.8 mph9.3 kmh 30.00 in1015.9 mb - 0.00 in0.0 mm 0.00 in0.0 mm
06:30 PM 77.2°F25.1°C 57.1°F13.9°C 50% 3.5 mph ENE5.6 kmh ENE 5.8 mph9.3 kmh 30.00 in1015.9 mb - 0.00 in0.0 mm 0.00 in0.0 mm
06:40 PM 76.5°F24.7°C 57.5°F14.2°C 52% 4.6 mph NE7.4 kmh NE 5.8 mph9.3 kmh 30.00 in1015.9 mb - 0.00 in0.0 mm 0.00 in0.0 mm
06:50 PM 75.9°F24.4°C 57.6°F14.2°C 53% 2.3 mph NE3.7 kmh NE 3.5 mph5.6 kmh 30.00 in1015.9 mb - 0.00 in0.0 mm 0.00 in0.0 mm
07:00 PM 75.4°F24.1°C 57.6°F14.2°C 54% Calm Calm -- 30.00 in1015.9 mb - 0.00 in0.0 mm 0.00 in0.0 mm
07:10 PM 75.2°F24.0°C 58.4°F14.7°C 56% 2.3 mph NNE3.7 kmh NNE 3.5 mph5.6 kmh 30.00 in1015.9 mb - 0.00 in0.0 mm 0.00 in0.0 mm
07:20 PM 74.7°F23.7°C 58.4°F14.7°C 57% 3.5 mph NNE5.6 kmh NNE 3.5 mph5.6 kmh 30.00 in1015.9 mb - 0.00 in0.0 mm 0.00 in0.0 mm
07:30 PM 74.1°F23.4°C 57.4°F14.1°C 56% 3.5 mph E5.6 kmh E 4.6 mph7.4 kmh 30.00 in1015.9 mb - 0.00 in0.0 mm 0.00 in0.0 mm
07:40 PM 73.7°F23.2°C 57.5°F14.2°C 57% Calm Calm -- 30.00 in1015.9 mb - 0.00 in0.0 mm 0.00 in0.0 mm
07:50 PM 73.2°F22.9°C 58.5°F14.7°C 60% Calm Calm -- 30.00 in1015.9 mb - 0.00 in0.0 mm 0.00 in0.0 mm
08:00 PM 72.7°F22.6°C 59.9°F15.5°C 64% 2.3 mph WNW3.7 kmh WNW 3.5 mph5.6 kmh 30.00 in1015.9 mb - 0.00 in0.0 mm 0.00 in0.0 mm
08:10 PM 72.7°F22.6°C 60.2°F15.7°C 65% 2.3 mph WNW3.7 kmh WNW 2.3 mph3.7 kmh 30.00 in1015.9 mb - 0.00 in0.0 mm 0.00 in0.0 mm
08:20 PM 72.1°F22.3°C 61.0°F16.1°C 68% 2.3 mph WNW3.7 kmh WNW 3.5 mph5.6 kmh 30.00 in1015.9 mb - 0.00 in0.0 mm 0.00 in0.0 mm
08:30 PM 72.1°F22.3°C 61.0°F16.1°C 68% 1.2 mph WNW1.9 kmh WNW 3.5 mph5.6 kmh 30.00 in1015.9 mb - 0.00 in0.0 mm 0.00 in0.0 mm
08:40 PM 72.1°F22.3°C 61.0°F16.1°C 68% Calm Calm -- 30.00 in1015.9 mb - 0.00 in0.0 mm 0.00 in0.0 mm
08:50 PM 69.4°F20.8°C 61.9°F16.6°C 77% Calm Calm -- 30.03 in1016.9 mb - 0.00 in0.0 mm 0.00 in0.0 mm
09:00 PM 68.9°F20.5°C 62.1°F16.7°C 79% Calm Calm -- 30.03 in1016.9 mb - 0.00 in0.0 mm 0.00 in0.0 mm
09:10 PM 68.4°F20.2°C 62.0°F16.7°C 80% Calm Calm -- 30.03 in1016.9 mb - 0.00 in0.0 mm 0.00 in0.0 mm
09:20 PM 68.1°F20.1°C 62.0°F16.7°C 81% Calm Calm -- 30.03 in1016.9 mb - 0.00 in0.0 mm 0.00 in0.0 mm
09:30 PM 67.6°F19.8°C 62.3°F16.8°C 83% Calm Calm -- 30.03 in1016.9 mb - 0.00 in0.0 mm 0.00 in0.0 mm
09:40 PM 67.3°F19.6°C 62.3°F16.8°C 84% Calm Calm -- 30.03 in1016.9 mb - 0.00 in0.0 mm 0.00 in0.0 mm
09:50 PM 66.6°F19.2°C 62.0°F16.7°C 85% Calm Calm -- 30.03 in1016.9 mb - 0.00 in0.0 mm 0.00 in0.0 mm
10:00 PM 66.1°F18.9°C 61.8°F16.6°C 86% Calm Calm -- 30.03 in1016.9 mb - 0.00 in0.0 mm 0.00 in0.0 mm
10:10 PM 65.7°F18.7°C 62.0°F16.7°C 88% Calm Calm -- 30.03 in1016.9 mb - 0.00 in0.0 mm 0.00 in0.0 mm
10:20 PM 65.4°F18.6°C 62.0°F16.7°C 89% Calm Calm -- 30.03 in1016.9 mb - 0.00 in0.0 mm 0.00 in0.0 mm
10:30 PM 65.0°F18.3°C 62.0°F16.7°C 90% Calm Calm -- 30.03 in1016.9 mb - 0.00 in0.0 mm 0.00 in0.0 mm
10:40 PM 64.4°F18.0°C 61.7°F16.5°C 91% Calm Calm -- 30.03 in1016.9 mb - 0.00 in0.0 mm 0.00 in0.0 mm
10:50 PM 64.1°F17.8°C 61.7°F16.5°C 92% Calm Calm -- 30.03 in1016.9 mb - 0.00 in0.0 mm 0.00 in0.0 mm
11:00 PM 63.9°F17.7°C 61.8°F16.6°C 93% 2.3 mph ESE3.7 kmh ESE 2.3 mph3.7 kmh 30.03 in1016.9 mb - 0.00 in0.0 mm 0.00 in0.0 mm
11:10 PM 63.9°F17.7°C 61.8°F16.6°C 93% Calm Calm -- 30.03 in1016.9 mb - 0.00 in0.0 mm 0.00 in0.0 mm
11:20 PM 63.9°F17.7°C 62.1°F16.7°C 94% Calm Calm -- 30.03 in1016.9 mb - 0.00 in0.0 mm 0.00 in0.0 mm
11:30 PM 63.9°F17.7°C 62.4°F16.9°C 95% 3.5 mph WSW5.6 kmh WSW 3.5 mph5.6 kmh 30.03 in1016.9 mb - 0.00 in0.0 mm 0.00 in0.0 mm
11:40 PM 63.5°F17.5°C 62.0°F16.7°C 95% 1.2 mph SW1.9 kmh SW 2.3 mph3.7 kmh 30.03 in1016.9 mb - 0.00 in0.0 mm 0.00 in0.0 mm
11:50 PM 63.1°F17.3°C 61.7°F16.5°C 95% Calm Calm -- 30.03 in1016.9 mb - 0.00 in0.0 mm 0.00 in0.0 mm